Wednesday, April 23, 2014
06:45 UTC
  |  Log In   |  Register Free
Airport Search:

Page Field Airport
(KFMY)

FAA data valid effective April 3, 2014 until May 29, 2014 (unless otherwise noted).

 
 
 
 
 
 
 
 
 
 
 
 
 
 

Current Aviation Weather for Page Field Airport (KFMY)

The most recent METAR observation for KFMY was updated at: 0553 UTC
METAR Summary (Translated METAR)
KFMY
230553Z 32005KT 10SM CLR 19/17 A2991 RMK AO2 SLP131 T01940167 10228 20194 58005
KRSW
(6.5 nm SE from KFMY)
230553Z 00000KT 10SM CLR 18/16 A2992 RMK AO2 SLP129 T01830161 10222 20183 58004
TAF Summary (Translated TAF)
KFMY
230541Z 2306/2406 32004KT P6SM SCT250 FM231400 32005KT P6SM FEW250 FM231900 27011KT P6SM FEW250 FM240200 VRB03KT P6SM SKC
KRSW
(6.5 nm SE from KFMY)
230541Z 2306/2406 VRB03KT P6SM SCT250 FM231400 29005KT P6SM FEW250 FM231900 28010KT P6SM FEW250 FM240200 VRB02KT P6SM SKC
  Airport Weather Conditions for KFMY

 Current Weather at FMY
67° F
Fair
Northwest winds at 5.8 mph
FMY NOAA Radar

Pressure: 29.91 in
Humidity: 84%
Wind: Northwest at 5.8 MPH (5 KT)
Dew Point: 62.1°F
Visibility: 10.00 mi


Airport Weather Forecast for KFMY

Translated METAR and TAF for KFMY
Translated METAR for KFMY (0645 UTC 23 April 2014)
found at http://aviationweather.gov/adds/metars/
 
METAR text: KFMY 230553Z 32005KT 10SM CLR 19/17 A2991 RMK AO2 SLP131 T01940167 10228 20194 58005
Conditions at: KFMY (FORT MYERS , FL, US) observed 0553 UTC 23 April 2014
Temperature: 19.4°C (67°F)
Dewpoint: 16.7°C (62°F) [RH = 84%]
Pressure (altimeter): 29.91 inches Hg (1013.0 mb)
[Sea-level pressure: 1013.1 mb]
Winds: from the NW (320 degrees) at 6 MPH (5 knots; 2.6 m/s)
Visibility: 10 or more miles (16+ km)
Ceiling: at least 12,000 feet AGL
Clouds: sky clear below 12,000 feet AGL
Weather: no significant weather observed at this time
Translated TAF for KFMY
Forecast for: KFMY (FORT MYERS , FL, US)
TAF Text: KFMY 230541Z 2306/2406 32004KT P6SM SCT250
Forecast period: 0600 to 1400 UTC 23 April 2014
Forecast type: FROM: standard forecast or significant change
Winds: from the NW (320 degrees) at 5 MPH (4 knots; 2.1 m/s)
Visibility: 6 or more miles (10+ km)
Clouds: scattered clouds at 25000 feet AGL
Weather: no significant weather forecast for this period
TAF Text: FM231400 32005KT P6SM FEW250
Forecast period: 1400 to 1900 UTC 23 April 2014
Forecast type: FROM: standard forecast or significant change
Winds: from the NW (320 degrees) at 6 MPH (5 knots; 2.6 m/s)
Visibility: 6 or more miles (10+ km)
Clouds: few clouds at 25000 feet AGL
Weather: no significant weather forecast for this period
TAF Text: FM231900 27011KT P6SM FEW250
Forecast period: 1900 UTC 23 April 2014 to 0200 UTC 24 April 2014
Forecast type: FROM: standard forecast or significant change
Winds: from the W (270 degrees) at 13 MPH (11 knots; 5.7 m/s)
Visibility: 6 or more miles (10+ km)
Clouds: few clouds at 25000 feet AGL
Weather: no significant weather forecast for this period
TAF Text: FM240200 VRB03KT P6SM SKC
Forecast period: 0200 to 0600 UTC 24 April 2014
Forecast type: FROM: standard forecast or significant change
Winds: variable direction winds at 3 MPH (3 knots; 1.6 m/s)
Visibility: 6 or more miles (10+ km)
Clouds: clear skies
Weather: no significant weather forecast for this period

Find All Airport Services Find A Hotel Find A Rental Car Find A Golf Course Find A Restaurant $100 Hamburger



FBO's on the Field
FBO Company Facility Photos Services Transportation Aviation Fuel Prices: Prices include tax
Catering Weather Repair Courtesy Rental Type 100LL JetA JetA+ MOGAS 8087
 
Base Operations at Page Field

Currently rated 4.8 by 2 people
FS:Avfuel
Last Updated: Apr-22
Login to update fuel prices
SS:
Contact Base Operations at Page FieldMore FBO Information
 
Add another FBO Facility Photos Catering Weather Repair Courtesy Rental Type 100LL JetA JetA+ MOGAS 8087
Services Transportation Aviation Fuel Prices: Prices include tax


GlobalAir.com Airport Resource Center model-print
model-print
model-print
model-print